Time;durP1;ratioP1;P1;durP2;ratioP2;P2;SDS_P1;SDS_P2;PMS_P1;PMS_P2;Temp;Humidity;BMP_temperature;BMP_pressure;BME280_temperature;BME280_humidity;BME280_pressure;Samples;Min_cycle;Max_cycle;Signal;HPM_P1;HPM_P2
2023/03/08 00:01:00;;;;;;;8.50;5.03;;;;;;;-143.84;65.81;45148.09;5088958;28;20433;-72
2023/03/08 00:03:28;;;;;;;6.13;5.27;;;;;;;-143.84;66.07;45123.34;5089473;28;20865;-73
2023/03/08 00:05:55;;;;;;;7.33;5.37;;;;;;;-143.84;66.24;45159.50;5089217;28;20842;-73
2023/03/08 00:08:23;;;;;;;12.17;5.93;;;;;;;-143.84;65.99;45144.28;5089073;28;20476;-73
2023/03/08 00:10:51;;;;;;;8.87;5.67;;;;;;;-143.84;66.27;45144.28;5089008;28;20934;-73
2023/03/08 00:13:18;;;;;;;10.13;6.23;;;;;;;-143.84;66.03;45113.81;5088689;28;20432;-73
2023/03/08 00:15:45;;;;;;;6.70;4.13;;;;;;;-143.84;65.89;45132.84;5087997;28;20810;-73
2023/03/08 00:18:12;;;;;;;6.00;4.37;;;;;;;-143.84;65.70;45163.31;5088501;28;20517;-73
2023/03/08 00:20:39;;;;;;;8.90;3.10;;;;;;;-143.84;65.64;45132.84;5088741;28;20962;-73
2023/03/08 00:23:08;;;;;;;3.50;3.20;;;;;;;-143.84;65.90;45161.41;5088516;28;20986;-73
2023/03/08 00:25:36;;;;;;;4.13;2.93;;;;;;;-143.84;65.82;45146.19;5089166;28;20428;-73
2023/03/08 00:28:04;;;;;;;2.90;2.60;;;;;;;-143.84;65.48;45111.91;5088527;28;20480;-73
2023/03/08 00:30:31;;;;;;;3.33;2.87;;;;;;;-143.84;65.32;45146.19;5088918;28;20506;-73
2023/03/08 00:32:58;;;;;;;3.07;2.83;;;;;;;-143.84;65.09;45140.47;5089067;28;20441;-73
2023/03/08 00:35:25;;;;;;;3.47;3.13;;;;;;;-143.84;65.30;45129.03;5088627;28;20448;-73
2023/03/08 00:37:52;;;;;;;6.70;4.83;;;;;;;-143.84;65.47;45144.28;5088641;28;20475;-73
2023/03/08 00:40:19;;;;;;;4.87;4.33;;;;;;;-143.84;65.76;45151.91;5088503;28;21246;-73
2023/03/08 00:42:48;;;;;;;8.33;3.80;;;;;;;-143.84;65.44;45144.28;5088454;28;20852;-73
2023/03/08 00:45:15;;;;;;;5.80;4.23;;;;;;;-143.84;65.42;45153.81;5088604;28;20521;-73
2023/03/08 00:47:42;;;;;;;5.57;4.37;;;;;;;-143.84;65.41;45159.50;5088516;28;20441;-73
2023/03/08 00:50:11;;;;;;;3.57;3.27;;;;;;;-143.84;65.62;45138.56;5089239;28;20441;-74
2023/03/08 00:52:38;;;;;;;4.10;2.90;;;;;;;-143.84;65.91;45123.34;5092451;28;20956;-73
2023/03/08 00:55:06;;;;;;;6.23;5.60;;;;;;;-143.84;66.67;45167.13;5092331;28;20443;-73
2023/03/08 00:57:33;;;;;;;10.33;6.40;;;;;;;-143.84;68.99;45144.28;5092466;28;20446;-73
2023/03/08 01:00:07;;;;;;;7.27;6.43;;;;;;;-143.84;69.19;45119.53;5092267;28;20448;-73
2023/03/08 01:02:34;;;;;;;8.90;6.30;;;;;;;-143.84;69.10;45136.66;5092366;28;20451;-73
2023/03/08 01:05:01;;;;;;;11.70;5.60;;;;;;;-143.84;68.47;45125.22;5092396;28;20436;-73
2023/03/08 01:07:30;;;;;;;7.60;5.93;;;;;;;-143.84;67.88;45140.47;5091815;28;20448;-73
2023/03/08 01:09:57;;;;;;;8.50;6.20;;;;;;;-143.84;67.04;45150.00;5092107;28;20471;-73
2023/03/08 01:12:24;;;;;;;13.00;7.30;;;;;;;-143.84;66.98;45136.66;5092218;28;20445;-73
2023/03/08 01:14:51;;;;;;;6.33;5.73;;;;;;;-143.84;66.75;45155.69;5092361;28;20615;-73
2023/03/08 01:17:20;;;;;;;6.20;4.60;;;;;;;-143.84;67.01;45163.31;5091851;28;20445;-73
2023/03/08 01:19:47;;;;;;;6.30;4.50;;;;;;;-143.84;67.35;45136.66;5092035;28;20439;-73
2023/03/08 01:22:14;;;;;;;8.20;4.40;;;;;;;-143.84;67.19;45163.31;5091607;28;20496;-73
2023/03/08 01:24:44;;;;;;;7.80;3.60;;;;;;;-143.84;66.61;45150.00;5091592;28;20505;-73
2023/03/08 01:27:11;;;;;;;3.67;3.40;;;;;;;-143.84;67.21;45150.00;5091914;28;20440;-73
2023/03/08 01:29:39;;;;;;;3.90;3.60;;;;;;;-143.84;67.60;45155.69;5092062;28;20482;-73
2023/03/08 01:32:06;;;;;;;5.37;3.30;;;;;;;-143.84;68.07;45130.94;5091878;28;20458;-73
2023/03/08 01:34:36;;;;;;;4.50;3.07;;;;;;;-143.84;68.36;45146.19;5091725;28;20435;-73
2023/03/08 01:37:03;;;;;;;2.77;2.57;;;;;;;-143.84;68.56;45169.03;5091291;28;20491;-73
2023/03/08 01:39:31;;;;;;;5.90;3.43;;;;;;;-143.84;68.52;45157.59;5091784;28;20460;-73
2023/03/08 01:41:58;;;;;;;3.50;3.20;;;;;;;-143.84;68.57;45140.47;5091733;28;20460;-73
2023/03/08 01:44:25;;;;;;;2.63;2.43;;;;;;;-143.84;68.67;45174.75;5091363;28;20868;-73
2023/03/08 01:46:53;;;;;;;2.60;2.40;;;;;;;-143.84;68.87;45140.47;5091696;28;20440;-73
2023/03/08 01:49:24;;;;;;;3.60;2.97;;;;;;;-143.84;68.95;45169.03;5091298;28;20483;-73
2023/03/08 01:51:56;;;;;;;4.13;2.67;;;;;;;-143.84;69.23;45161.41;5091268;28;20534;-73
2023/03/08 01:54:28;;;;;;;13.20;5.27;;;;;;;-143.84;70.01;45136.66;5091546;28;20443;-73
2023/03/08 01:57:01;;;;;;;8.27;5.40;;;;;;;-143.84;72.30;45140.47;5091761;28;20493;-73
2023/03/08 01:59:32;;;;;;;7.07;6.10;;;;;;;-143.84;73.16;45170.94;5093263;28;20965;-75
2023/03/08 02:02:00;;;;;;;16.93;8.00;;;;;;;-143.84;73.80;45153.81;5092364;28;20489;-75
2023/03/08 02:04:28;;;;;;;13.23;8.60;;;;;;;-143.84;74.94;45144.28;5082682;28;20502;-75
2023/03/08 02:06:56;;;;;;;9.00;8.00;;;;;;;-143.84;75.58;45138.56;5072368;28;20509;-75
2023/03/08 02:09:24;;;;;;;8.03;7.13;;;;;;;-143.84;75.88;45150.00;5078415;28;20465;-75
2023/03/08 02:11:52;;;;;;;10.17;7.90;;;;;;;-143.84;75.55;45153.81;5092706;28;20864;-75
2023/03/08 02:14:19;;;;;;;20.57;9.50;;;;;;;-143.84;75.21;45151.91;5092657;28;20431;-75
2023/03/08 02:16:47;;;;;;;15.30;9.77;;;;;;;-143.84;74.97;45130.94;5093029;28;20438;-75
2023/03/08 02:19:21;;;;;;;10.63;8.67;;;;;;;-143.84;74.71;45134.75;5092773;28;20447;-75
2023/03/08 02:21:48;;;;;;;15.37;9.87;;;;;;;-143.84;74.53;45151.91;5092577;28;20450;-75
2023/03/08 02:24:22;;;;;;;18.37;11.67;;;;;;;-143.84;74.38;45125.22;5085721;28;20449;-75
2023/03/08 02:26:51;;;;;;;12.00;9.57;;;;;;;-143.84;73.95;45155.69;5072534;28;20502;-75
2023/03/08 02:29:19;;;;;;;12.57;7.90;;;;;;;-143.84;73.71;45117.63;5071375;28;20479;-75
2023/03/08 02:31:46;;;;;;;5.70;5.13;;;;;;;-143.84;73.27;45136.66;5071384;28;20524;-75
2023/03/08 02:34:13;;;;;;;7.00;5.77;;;;;;;-143.84;73.90;45155.69;5090937;28;20489;-75
2023/03/08 02:36:40;;;;;;;11.63;5.03;;;;;;;-143.84;74.57;45130.94;5091765;28;20536;-75
2023/03/08 02:39:07;;;;;;;5.83;4.60;;;;;;;-143.84;74.16;45150.00;5092255;28;20489;-76
2023/03/08 02:41:35;;;;;;;7.33;4.83;;;;;;;-143.84;73.99;45163.31;5092526;28;20508;-75
2023/03/08 02:44:02;;;;;;;5.40;3.53;;;;;;;-143.84;73.84;45132.84;5092005;28;20500;-75
2023/03/08 02:46:30;;;;;;;4.67;3.33;;;;;;;-143.84;73.58;45159.50;5092441;28;20499;-75
2023/03/08 02:48:57;;;;;;;6.83;2.83;;;;;;;-143.84;73.85;45146.19;5091861;28;20811;-75
2023/03/08 02:51:24;;;;;;;4.87;3.57;;;;;;;-143.84;73.95;45148.09;5091998;28;20443;-75
2023/03/08 02:53:51;;;;;;;5.17;4.67;;;;;;;-143.84;73.89;45140.47;5090618;28;20428;-75
2023/03/08 02:56:18;;;;;;;6.53;5.73;;;;;;;-143.84;74.35;45161.41;5091432;28;20467;-75
2023/03/08 02:58:47;;;;;;;6.37;4.30;;;;;;;-143.84;74.30;45136.66;5091957;28;20511;-75
2023/03/08 03:01:15;;;;;;;4.60;4.00;;;;;;;-143.84;74.17;45130.94;5092631;28;20937;-75
2023/03/08 03:03:42;;;;;;;4.13;3.67;;;;;;;-143.84;74.30;45174.75;5091805;28;20493;-76
2023/03/08 03:06:14;;;;;;;3.40;3.20;;;;;;;-143.84;74.07;45178.56;5091529;28;20443;-76
2023/03/08 03:08:42;;;;;;;3.53;3.23;;;;;;;-143.84;73.69;45150.00;5091796;28;20447;-76
2023/03/08 03:11:13;;;;;;;3.47;2.90;;;;;;;-143.84;73.64;45163.31;5091680;28;20504;-76
2023/03/08 03:13:40;;;;;;;5.20;3.07;;;;;;;-143.84;73.62;45125.22;5091334;28;20876;-73
2023/03/08 03:16:11;;;;;;;5.87;3.13;;;;;;;-143.84;73.66;45159.50;5090019;28;20870;-74
2023/03/08 03:18:38;;;;;;;3.13;2.90;;;;;;;-143.84;73.62;45170.94;5089847;28;20447;-73
2023/03/08 03:21:08;;;;;;;3.90;3.10;;;;;;;-143.84;73.73;45151.91;5075560;28;20463;-73
2023/03/08 03:23:35;;;;;;;9.73;3.57;;;;;;;-143.84;74.11;45174.75;5069822;28;21116;-74
2023/03/08 03:26:06;;;;;;;4.90;3.73;;;;;;;-143.84;74.35;45157.59;5069721;28;20915;-74
2023/03/08 03:28:33;;;;;;;4.27;3.90;;;;;;;-143.84;74.13;45159.50;5069249;28;20527;-73
2023/03/08 03:31:00;;;;;;;9.97;5.17;;;;;;;-143.84;74.17;45146.19;5069323;28;20444;-74
2023/03/08 03:33:29;;;;;;;6.00;4.57;;;;;;;-143.84;73.99;45161.41;5069140;28;20495;-74
2023/03/08 03:35:56;;;;;;;8.70;4.30;;;;;;;-143.84;74.27;45150.00;5069152;28;20448;-73
2023/03/08 03:38:23;;;;;;;7.07;4.77;;;;;;;-143.84;74.58;45159.50;5069555;28;20435;-74
2023/03/08 03:40:50;;;;;;;6.50;4.33;;;;;;;-143.84;74.77;45134.75;5069510;28;20444;-73
2023/03/08 03:43:17;;;;;;;4.17;3.80;;;;;;;-143.84;74.73;45172.84;5069141;28;20509;-73
2023/03/08 03:45:44;;;;;;;5.00;4.43;;;;;;;-143.84;74.75;45161.41;5068972;28;20455;-73
2023/03/08 03:48:11;;;;;;;7.50;4.40;;;;;;;-143.84;75.12;45138.56;5068836;28;20999;-73
2023/03/08 03:50:40;;;;;;;8.60;4.47;;;;;;;-143.84;75.06;45150.00;5069154;28;20480;-74
2023/03/08 03:53:07;;;;;;;8.83;4.20;;;;;;;-143.84;74.95;45136.66;5069653;28;20451;-74
2023/03/08 03:55:34;;;;;;;6.30;4.40;;;;;;;-143.84;75.06;45146.19;5069417;28;20525;-74
2023/03/08 03:58:01;;;;;;;7.23;3.90;;;;;;;-143.84;74.95;45150.00;5076971;28;20464;-74
2023/03/08 04:00:28;;;;;;;6.20;3.40;;;;;;;-143.84;75.19;45163.31;5069220;28;20971;-74
2023/03/08 04:02:56;;;;;;;18.27;6.40;;;;;;;-143.84;75.04;45127.13;5069491;28;20432;-74
2023/03/08 04:05:23;;;;;;;5.50;3.80;;;;;;;-143.84;74.99;45146.19;5069542;28;20485;-73
2023/03/08 04:07:51;;;;;;;6.50;3.70;;;;;;;-143.84;74.98;45151.91;5068844;28;21361;-74
2023/03/08 04:10:19;;;;;;;5.43;4.60;;;;;;;-143.84;75.11;45151.91;5068786;28;20851;-73
2023/03/08 04:12:49;;;;;;;13.10;5.50;;;;;;;-143.84;75.18;45151.91;5068257;28;20451;-73
2023/03/08 04:15:16;;;;;;;8.80;4.40;;;;;;;-143.84;74.74;45150.00;5068609;28;20445;-73
2023/03/08 04:17:43;;;;;;;8.90;3.93;;;;;;;-143.84;75.18;45148.09;5068394;28;20457;-72
2023/03/08 04:20:13;;;;;;;7.90;3.60;;;;;;;-143.84;75.28;45134.75;5068685;28;20447;-76
2023/03/08 04:22:40;;;;;;;6.17;4.00;;;;;;;-143.84;75.31;45159.50;5068904;28;20450;-73
2023/03/08 04:25:09;;;;;;;4.60;4.20;;;;;;;-143.84;75.04;45140.47;5069214;28;20439;-73
2023/03/08 04:27:36;;;;;;;3.47;3.17;;;;;;;-143.84;74.82;45140.47;5073283;28;20447;-74
2023/03/08 04:30:04;;;;;;;9.90;3.90;;;;;;;-143.84;74.67;45159.50;5073018;28;20474;-74
2023/03/08 04:32:32;;;;;;;2.70;2.50;;;;;;;-143.84;74.53;45157.59;5071579;28;21177;-74
2023/03/08 04:34:59;;;;;;;5.80;4.00;;;;;;;-143.84;74.18;45150.00;5071558;28;20522;-75
2023/03/08 04:37:26;;;;;;;3.80;3.50;;;;;;;-143.84;74.09;45127.13;5072055;28;20479;-74
2023/03/08 04:39:53;;;;;;;4.17;2.67;;;;;;;-143.84;74.07;45150.00;5072798;28;20521;-75
2023/03/08 04:42:22;;;;;;;2.83;2.50;;;;;;;-143.84;73.67;45191.88;5072674;28;20519;-76
2023/03/08 04:44:49;;;;;;;2.43;2.33;;;;;;;-143.84;73.47;45176.66;5081725;28;20451;-77
2023/03/08 04:47:16;;;;;;;4.57;2.83;;;;;;;-143.84;73.44;45153.81;5092182;28;21061;-73
2023/03/08 04:49:44;;;;;;;8.60;2.50;;;;;;;-143.84;73.11;45151.91;5082077;28;20485;-74
2023/03/08 04:52:11;;;;;;;7.63;2.73;;;;;;;-143.84;72.85;45157.59;5072740;28;20439;-74
2023/03/08 04:54:38;;;;;;;5.63;2.53;;;;;;;-143.84;72.49;45144.28;5072220;28;20440;-73
2023/03/08 04:57:05;;;;;;;6.00;2.87;;;;;;;-143.84;72.33;45136.66;5072072;28;20445;-72
2023/03/08 04:59:34;;;;;;;3.60;2.57;;;;;;;-143.84;71.99;45159.50;5072338;28;21022;-74
2023/03/08 05:02:01;;;;;;;3.27;2.93;;;;;;;-143.84;71.76;45157.59;5071437;28;20436;-73
2023/03/08 05:04:28;;;;;;;3.17;2.30;;;;;;;-143.84;71.34;45127.13;5072104;28;20437;-74
2023/03/08 05:06:55;;;;;;;3.10;2.80;;;;;;;-143.84;71.12;45150.00;5072243;28;20448;-74
2023/03/08 05:09:22;;;;;;;4.40;3.40;;;;;;;-143.84;70.92;45161.41;5072185;28;21000;-74
2023/03/08 05:11:49;;;;;;;4.90;3.90;;;;;;;-143.84;70.89;45150.00;5074928;28;20860;-74
2023/03/08 05:14:16;;;;;;;5.40;2.83;;;;;;;-143.84;70.50;45140.47;5092339;28;20489;-75
2023/03/08 05:16:45;;;;;;;6.27;2.87;;;;;;;-143.84;70.10;45169.03;5092124;28;20462;-74
2023/03/08 05:19:12;;;;;;;7.93;3.27;;;;;;;-143.84;69.94;45134.75;5092166;28;20442;-74
2023/03/08 05:21:39;;;;;;;4.97;3.20;;;;;;;-143.84;69.86;45151.91;5092260;28;20443;-74
2023/03/08 05:24:07;;;;;;;3.80;2.63;;;;;;;-143.84;69.85;45165.22;5093378;28;20442;-73
2023/03/08 05:26:34;;;;;;;3.10;2.80;;;;;;;-143.84;69.35;45165.22;5093956;28;21303;-73
2023/03/08 05:29:02;;;;;;;3.10;2.10;;;;;;;-143.84;68.92;45148.09;5093445;28;21161;-73
2023/03/08 05:31:29;;;;;;;2.90;2.70;;;;;;;-143.84;68.28;45150.00;5093836;28;20487;-73
2023/03/08 05:33:58;;;;;;;5.60;2.60;;;;;;;-143.84;68.62;45153.81;5094080;28;20460;-72
2023/03/08 05:36:26;;;;;;;8.40;2.70;;;;;;;-143.84;67.59;45153.81;5092173;28;21002;-73
2023/03/08 05:38:54;;;;;;;2.90;2.63;;;;;;;-143.84;67.51;45151.91;5091729;28;20867;-73
2023/03/08 05:41:21;;;;;;;4.47;2.60;;;;;;;-143.84;67.45;45146.19;5094133;28;20437;-73
2023/03/08 05:43:48;;;;;;;3.33;3.03;;;;;;;-143.84;66.70;45129.03;5093976;28;20937;-73
2023/03/08 05:46:18;;;;;;;2.87;2.60;;;;;;;-143.84;66.01;45144.28;5093571;28;20508;-74
2023/03/08 05:48:45;;;;;;;6.70;2.63;;;;;;;-143.84;63.69;45144.28;5092782;28;20436;-72
2023/03/08 05:51:16;;;;;;;3.20;2.47;;;;;;;-143.84;62.11;45117.63;5092868;28;20482;-73
2023/03/08 05:53:43;;;;;;;3.23;1.93;;;;;;;-143.84;60.50;45129.03;5093837;28;20434;-73
2023/03/08 05:56:12;;;;;;;6.13;2.63;;;;;;;-143.84;58.96;45123.34;5093715;28;20849;-73
2023/03/08 05:58:40;;;;;;;5.87;2.50;;;;;;;-143.84;57.52;45117.63;5073973;28;20494;-73
2023/03/08 06:01:12;;;;;;;5.30;2.70;;;;;;;-143.84;56.81;45119.53;5073938;28;20433;-73
2023/03/08 06:03:39;;;;;;;2.67;2.43;;;;;;;-143.84;54.63;45123.34;5073775;28;20486;-73
2023/03/08 06:06:07;;;;;;;3.77;2.60;;;;;;;-143.84;53.15;45144.28;5073728;28;20455;-73
2023/03/08 06:08:35;;;;;;;3.83;2.40;;;;;;;-143.84;52.52;45151.91;5073631;28;21115;-73
2023/03/08 06:11:03;;;;;;;3.57;2.30;;;;;;;-143.84;51.44;45127.13;5073136;28;20479;-73
2023/03/08 06:13:30;;;;;;;6.27;2.00;;;;;;;-143.84;50.10;45108.09;5073363;28;20871;-73
2023/03/08 06:15:58;;;;;;;2.80;2.50;;;;;;;-143.84;49.87;45110.00;5073258;28;20474;-73
2023/03/08 06:18:26;;;;;;;3.57;2.50;;;;;;;-143.84;49.65;45117.63;5072750;28;20432;-73
2023/03/08 06:21:01;;;;;;;3.97;2.63;;;;;;;-143.84;48.72;45117.63;5072526;28;20953;-73
2023/03/08 06:23:29;;;;;;;5.83;2.33;;;;;;;-143.84;48.32;45094.78;5072399;28;20451;-73
2023/03/08 06:25:59;;;;;;;4.93;2.40;;;;;;;-143.84;48.21;45121.44;5072853;28;20790;-73
2023/03/08 06:28:27;;;;;;;2.60;2.40;;;;;;;-143.84;48.27;45100.47;5072725;28;20452;-73
2023/03/08 06:30:55;;;;;;;2.80;2.60;;;;;;;-143.84;47.26;45123.34;5072494;28;20485;-73
2023/03/08 06:33:25;;;;;;;4.23;2.97;;;;;;;-143.84;47.23;45125.22;5072378;28;20931;-73
2023/03/08 06:35:59;;;;;;;4.00;2.00;;;;;;;-143.84;46.82;45094.78;5071911;28;20493;-73
2023/03/08 06:38:28;;;;;;;3.73;2.67;;;;;;;-143.84;46.18;45104.28;5072569;28;20952;-73
2023/03/08 06:40:55;;;;;;;5.43;2.87;;;;;;;-143.84;46.17;45110.00;5072457;28;20502;-73
2023/03/08 06:43:24;;;;;;;2.93;2.63;;;;;;;-143.84;45.64;45090.97;5072499;28;20445;-72
2023/03/08 06:45:52;;;;;;;4.77;2.53;;;;;;;-143.84;45.33;45121.44;5072239;28;20501;-73
2023/03/08 06:48:19;;;;;;;7.20;2.77;;;;;;;-143.84;44.87;45180.47;5071485;28;20464;-73
2023/03/08 06:50:46;;;;;;;3.40;2.90;;;;;;;-143.84;44.50;45102.38;5071629;28;20479;-73
2023/03/08 06:53:14;;;;;;;3.40;3.10;;;;;;;-143.84;44.30;45083.34;5071934;28;20502;-73
2023/03/08 06:55:42;;;;;;;12.83;2.90;;;;;;;-143.84;44.30;45089.06;5071744;28;20457;-73
2023/03/08 06:58:09;;;;;;;7.13;3.50;;;;;;;-143.84;44.78;45098.56;5071758;28;20460;-73
2023/03/08 07:00:39;;;;;;;4.10;3.03;;;;;;;-143.84;44.13;45111.91;5072035;28;21086;-72
2023/03/08 07:03:06;;;;;;;4.20;2.83;;;;;;;-143.84;44.19;45104.28;5072180;28;20534;-73
2023/03/08 07:05:33;;;;;;;5.70;3.30;;;;;;;-143.84;44.17;45090.97;5089202;28;20451;-73
2023/03/08 07:08:00;;;;;;;12.40;3.33;;;;;;;-143.84;43.96;45108.09;5092549;28;20835;-73
2023/03/08 07:10:27;;;;;;;8.70;3.43;;;;;;;-143.84;44.33;45098.56;5092070;28;20536;-73
2023/03/08 07:12:54;;;;;;;9.27;4.00;;;;;;;-143.84;44.21;45136.66;5091822;28;20928;-73
2023/03/08 07:15:23;;;;;;;4.40;3.07;;;;;;;-143.84;43.80;45085.25;5091072;28;20446;-72
2023/03/08 07:17:55;;;;;;;6.97;3.50;;;;;;;-143.84;44.04;45102.38;5091037;28;21263;-72
2023/03/08 07:20:23;;;;;;;5.83;4.17;;;;;;;-143.84;44.47;45102.38;5091053;28;20450;-72
2023/03/08 07:22:50;;;;;;;7.03;5.00;;;;;;;-143.84;43.60;45077.63;5091279;28;20450;-72
2023/03/08 07:25:19;;;;;;;4.90;4.40;;;;;;;-143.84;44.40;45073.81;5091544;28;21016;-71
2023/03/08 07:27:46;;;;;;;11.20;4.87;;;;;;;-143.84;44.27;45108.09;5091877;28;20799;-72
2023/03/08 07:30:16;;;;;;;6.97;4.40;;;;;;;-143.84;44.21;45144.28;5091003;28;20472;-72
2023/03/08 07:32:43;;;;;;;10.63;5.27;;;;;;;-143.84;43.92;45073.81;5091666;28;20863;-72
2023/03/08 07:35:14;;;;;;;11.53;5.30;;;;;;;-143.84;43.92;45079.53;5091464;28;20497;-72
2023/03/08 07:37:43;;;;;;;17.47;6.03;;;;;;;-143.84;43.88;45064.31;5091045;28;20513;-72
2023/03/08 07:40:12;;;;;;;13.63;5.90;;;;;;;-143.84;43.57;45079.53;5091291;28;20441;-70
2023/03/08 07:42:39;;;;;;;11.20;5.60;;;;;;;-143.84;43.64;45079.53;5090805;28;20446;-72
2023/03/08 07:45:07;;;;;;;17.37;6.37;;;;;;;-143.84;44.06;45075.72;5089543;28;20439;-72
2023/03/08 07:47:35;;;;;;;12.30;6.30;;;;;;;-143.84;44.44;45106.19;5088833;28;20468;-72
2023/03/08 07:50:02;;;;;;;18.83;8.37;;;;;;;-143.84;44.27;45100.47;5089205;28;20503;-72
2023/03/08 07:52:31;;;;;;;16.73;9.33;;;;;;;-143.84;44.71;45085.25;5089210;28;20452;-70
2023/03/08 07:55:01;;;;;;;15.27;7.50;;;;;;;-143.84;44.34;45089.06;5089316;28;20451;-71
2023/03/08 07:57:28;;;;;;;11.27;7.23;;;;;;;-143.84;44.70;45079.53;5088940;28;20447;-71
2023/03/08 07:59:55;;;;;;;18.67;6.93;;;;;;;-143.84;44.17;45071.91;5088572;28;20435;-71
2023/03/08 08:02:22;;;;;;;4.67;3.60;;;;;;;-143.84;43.13;45071.91;5088896;28;20452;-71
2023/03/08 08:04:50;;;;;;;4.50;4.00;;;;;;;-143.84;42.87;45094.78;5088988;28;20857;-71
2023/03/08 08:07:18;;;;;;;4.33;3.90;;;;;;;-143.84;41.81;45094.78;5088945;28;21094;-71
2023/03/08 08:09:46;;;;;;;3.40;3.10;;;;;;;-143.84;41.63;45083.34;5088909;28;20476;-71
2023/03/08 08:12:14;;;;;;;5.87;4.20;;;;;;;-143.84;41.94;45087.16;5088811;28;20479;-72
2023/03/08 08:14:41;;;;;;;4.30;3.37;;;;;;;-143.84;41.34;45068.13;5088742;28;20455;-71
2023/03/08 08:17:08;;;;;;;8.10;3.67;;;;;;;-143.84;41.42;45062.41;5088818;28;20476;-71
2023/03/08 08:19:35;;;;;;;7.50;2.90;;;;;;;-143.84;40.64;45087.16;5088862;28;20509;-71
2023/03/08 08:22:02;;;;;;;3.93;2.80;;;;;;;-143.84;39.74;45050.97;5088579;28;20476;-71
2023/03/08 08:24:31;;;;;;;9.47;3.47;;;;;;;-143.84;40.23;45068.13;5088577;28;20439;-71
2023/03/08 08:27:00;;;;;;;8.60;3.63;;;;;;;-143.84;40.52;45049.06;5088664;28;20535;-71
2023/03/08 08:29:27;;;;;;;6.73;3.83;;;;;;;-143.84;39.49;45081.44;5084062;28;20441;-71
2023/03/08 08:31:55;;;;;;;4.63;3.20;;;;;;;-143.84;39.87;45056.69;5068773;28;20557;-71
2023/03/08 08:34:23;;;;;;;5.63;3.90;;;;;;;-143.84;39.24;45064.31;5068309;28;20440;-71
2023/03/08 08:36:50;;;;;;;7.23;3.27;;;;;;;-143.84;39.25;45031.94;5073195;28;20487;-71
2023/03/08 08:39:17;;;;;;;5.13;3.50;;;;;;;-143.84;39.06;45075.72;5088520;28;20456;-72
2023/03/08 08:41:44;;;;;;;6.57;3.80;;;;;;;-143.84;38.46;45041.44;5088635;28;20458;-72
2023/03/08 08:44:13;;;;;;;6.83;3.40;;;;;;;-143.84;38.52;45068.13;5088619;28;20505;-72
2023/03/08 08:46:40;;;;;;;4.57;4.17;;;;;;;-143.84;38.01;45068.13;5088222;28;20505;-72
2023/03/08 08:49:07;;;;;;;9.93;4.77;;;;;;;-143.84;38.35;45079.53;5088192;28;20440;-72
2023/03/08 08:51:34;;;;;;;8.60;4.40;;;;;;;-143.84;38.31;45031.94;5088412;28;21031;-72
2023/03/08 08:54:01;;;;;;;12.93;6.30;;;;;;;-143.84;38.07;45081.44;5088260;28;20501;-71
2023/03/08 08:56:29;;;;;;;11.53;5.20;;;;;;;-143.84;38.06;45062.41;5087483;28;20459;-72
2023/03/08 08:58:57;;;;;;;15.43;5.40;;;;;;;-143.84;36.64;45073.81;5087883;28;20442;-72
2023/03/08 09:01:28;;;;;;;15.13;5.87;;;;;;;-143.84;37.44;45024.31;5088208;28;20452;-72
2023/03/08 09:03:55;;;;;;;10.27;6.90;;;;;;;-143.84;36.53;45041.44;5088124;28;20505;-72
2023/03/08 09:06:24;;;;;;;10.90;4.90;;;;;;;-143.84;37.25;45035.75;5088527;28;20436;-72
2023/03/08 09:08:52;;;;;;;7.20;5.00;;;;;;;-143.84;36.56;45071.91;5088160;28;20439;-72
2023/03/08 09:11:19;;;;;;;15.23;6.37;;;;;;;-143.84;36.64;45047.16;5088850;28;20479;-72
2023/03/08 09:13:46;;;;;;;11.43;5.90;;;;;;;-143.84;36.17;45026.22;5091885;28;20437;-72
2023/03/08 09:16:18;;;;;;;14.93;7.20;;;;;;;-143.84;36.71;45014.78;5092147;28;20440;-72
2023/03/08 09:18:47;;;;;;;18.07;7.47;;;;;;;-143.84;36.96;45066.22;5091622;28;20439;-72
2023/03/08 09:21:14;;;;;;;21.30;7.60;;;;;;;-143.84;36.29;45030.03;5091534;28;20455;-72
2023/03/08 09:23:42;;;;;;;9.07;6.77;;;;;;;-143.84;35.35;45037.66;5092244;28;20436;-72
2023/03/08 09:26:09;;;;;;;15.40;8.97;;;;;;;-143.84;35.36;45030.03;5091818;28;20427;-72
2023/03/08 09:28:36;;;;;;;9.93;7.37;;;;;;;-143.84;35.78;45058.59;5091664;28;20443;-72
2023/03/08 09:31:10;;;;;;;13.87;8.20;;;;;;;-143.84;35.45;45052.88;5091625;28;20851;-72
2023/03/08 09:33:38;;;;;;;12.50;8.00;;;;;;;-143.84;35.26;45045.25;5091636;28;20462;-72
2023/03/08 09:36:07;;;;;;;17.90;8.77;;;;;;;-143.84;35.13;45054.78;5091494;28;20439;-72
2023/03/08 09:38:34;;;;;;;14.30;6.70;;;;;;;-143.84;35.20;45037.66;5091596;28;20509;-72
2023/03/08 09:41:14;;;;;;;21.93;6.37;;;;;;;-143.84;35.25;45026.22;5091927;28;20452;-72
2023/03/08 09:43:47;;;;;;;7.73;6.20;;;;;;;-143.84;35.01;45024.31;5091333;28;20955;-72
2023/03/08 09:46:17;;;;;;;11.13;5.17;;;;;;;-143.84;35.11;45037.66;5091421;28;21024;-72
2023/03/08 09:48:49;;;;;;;20.27;6.00;;;;;;;-143.84;35.62;45041.44;5091447;28;20443;-72
2023/03/08 09:51:21;;;;;;;14.30;5.60;;;;;;;-143.84;36.12;45028.13;5091035;28;20503;-72
2023/03/08 09:53:54;;;;;;;16.70;7.30;;;;;;;-143.84;35.81;45024.31;5091171;28;20793;-71
2023/03/08 09:56:29;;;;;;;7.73;5.23;;;;;;;-143.84;36.36;45020.50;5091298;28;20526;-72
2023/03/08 09:59:01;;;;;;;12.43;6.50;;;;;;;-143.84;36.04;45035.75;5091230;28;21023;-72
2023/03/08 10:01:37;;;;;;;18.23;7.20;;;;;;;-143.84;35.22;45039.53;5090729;28;20436;-72
2023/03/08 10:04:23;;;;;;;10.50;7.20;;;;;;;-143.84;35.81;45047.16;5090145;28;20435;-71
2023/03/08 10:07:01;;;;;;;23.37;7.70;;;;;;;-143.84;36.39;45050.97;5090520;28;20440;-72
2023/03/08 10:09:33;;;;;;;13.13;7.20;;;;;;;-143.84;36.10;45041.44;5091049;28;20818;-72
2023/03/08 10:12:11;;;;;;;12.77;7.90;;;;;;;-143.84;35.78;45045.25;5090914;28;20509;-71
2023/03/08 10:14:42;;;;;;;12.40;7.07;;;;;;;-143.84;36.01;45049.06;5091206;28;20446;-71
2023/03/08 10:17:16;;;;;;;13.30;7.93;;;;;;;-143.84;36.21;45035.75;5091022;28;20933;-71
2023/03/08 10:19:48;;;;;;;13.47;7.70;;;;;;;-143.84;37.67;45050.97;5090772;28;20941;-72
2023/03/08 10:22:25;;;;;;;11.83;7.63;;;;;;;-143.84;36.16;45030.03;5090509;28;20439;-72
2023/03/08 10:24:57;;;;;;;11.20;5.03;;;;;;;-143.84;35.92;45028.13;5090328;28;20440;-73
2023/03/08 10:27:26;;;;;;;6.70;4.57;;;;;;;-143.84;35.24;45009.09;5090079;28;20447;-71
2023/03/08 10:29:55;;;;;;;17.03;6.27;;;;;;;-143.84;36.13;45060.50;5091728;28;20451;-72
2023/03/08 10:32:24;;;;;;;8.03;6.00;;;;;;;-143.84;37.13;45028.13;5090755;28;20564;-71
2023/03/08 10:34:52;;;;;;;7.10;4.70;;;;;;;-143.84;35.62;45018.59;5091329;28;20451;-72
2023/03/08 10:37:23;;;;;;;9.20;3.53;;;;;;;-143.84;35.08;45064.31;5084788;28;20538;-72
2023/03/08 10:39:53;;;;;;;7.43;3.30;;;;;;;-143.84;33.57;45031.94;5070933;28;21399;-72
2023/03/08 10:42:23;;;;;;;4.30;3.57;;;;;;;-143.84;34.12;45037.66;5070342;28;20451;-72
2023/03/08 10:44:57;;;;;;;3.17;2.87;;;;;;;-143.84;32.96;45054.78;5070446;28;20490;-72
2023/03/08 10:47:27;;;;;;;5.10;3.53;;;;;;;-143.84;34.08;45024.31;5070555;28;20456;-72
2023/03/08 10:50:06;;;;;;;4.10;3.70;;;;;;;-143.84;33.52;45016.69;5070787;28;20521;-71
2023/03/08 10:52:35;;;;;;;3.83;3.47;;;;;;;-143.84;33.40;45024.31;5070285;28;20477;-73
2023/03/08 10:55:05;;;;;;;8.17;2.97;;;;;;;-143.84;33.17;45030.03;5070181;28;20502;-74
2023/03/08 10:57:33;;;;;;;6.63;4.10;;;;;;;-143.84;33.78;45033.84;5069455;28;20813;-72
2023/03/08 11:00:11;;;;;;;9.50;3.70;;;;;;;-143.84;34.17;45016.69;5069908;28;20479;-72
2023/03/08 11:02:38;;;;;;;9.83;3.80;;;;;;;-143.84;33.38;45018.59;5070535;28;20448;-73
2023/03/08 11:05:18;;;;;;;6.57;3.43;;;;;;;-143.84;33.24;45009.09;5070860;28;20433;-73
2023/03/08 11:07:53;;;;;;;6.57;3.27;;;;;;;-143.84;33.78;45026.22;5070936;28;20440;-74
2023/03/08 11:10:23;;;;;;;4.50;3.27;;;;;;;-143.84;32.28;45045.25;5070630;28;20809;-73
2023/03/08 11:13:00;;;;;;;4.60;2.57;;;;;;;-143.84;31.97;45026.22;5071519;28;20460;-75
2023/03/08 11:15:29;;;;;;;7.50;3.00;;;;;;;-143.84;31.99;45026.22;5071692;28;20489;-76
2023/03/08 11:18:02;;;;;;;7.93;2.90;;;;;;;-143.84;32.10;45045.25;5071636;28;20499;-74
2023/03/08 11:20:34;;;;;;;6.27;2.80;;;;;;;-143.84;32.05;45020.50;5071638;28;20458;-74